Webkamera Lisätietoa Webcam


Yksityisiä sääasemia lähellä:

Sääasema Juupajoki

Sääasema Orivesi

Sääasema Muurame

Sääasema Jyväskylä

Sääasema Vihtavuori


Löydät sääaseman tiedot myös:

Finland Weather Exchange

European Weather Network

Weather Underground

AWEKAS

Windy.com



Säätiedot lähimmiltä METAR asemilta

   
EFHA - Halli (Fin-Afb), Finland
Etäisyys asemalta: Kaakko 25 km
Päivitetty: 23.10.2021 08:20
Heikkoa lumisadetta, Pilvistä  
Heikkoa lumisadetta, Pilvistä  
   Tuuli: Pohjoinen 5.7 m/s
Tuuli: Pohjoinen 5.7 m/s
Lämpötila: 0°C
Tuulen hyytävyys: -5°C
Kastepiste: 0°C
Kosteus: 100%
Ilmanpaine: 997 hPa
Pilvisyys: Pilvistä
Näkyvyys: 5 km
Pilvitiedot: Pilvistä 244 m
EFHA 230520Z AUTO 36011KT 4500 -SN OVC008 00/M00 Q0997
EFJY - Jyvaskyla (Mil/Civ), Finland
Etäisyys asemalta: Koillinen 75 km
Päivitetty: 23.10.2021 08:20
Heikkoa lumisadetta, Pilvistä  
Heikkoa lumisadetta, Pilvistä  
   Tuuli: Pohjoinen 4.6 m/s
Tuuli: Pohjoinen 4.6 m/s
Lämpötila: 0°C
Tuulen hyytävyys: -4°C
Kastepiste: -1°C
Kosteus: 93%
Ilmanpaine: 997 hPa
Pilvisyys: Pilvistä
Näkyvyys: 7 km
Pilvitiedot: Pilvistä 274 m
EFJY 230520Z AUTO 01009KT 340V040 7000 -SN OVC009 00/M01 Q0997
EFTP - Tampere/Pirkkala, Finland
Etäisyys asemalta: Lounas 81 km
Päivitetty: 23.10.2021 08:20
Heikkoa lumisadetta, Pilvistä  
Heikkoa lumisadetta, Pilvistä  
   Tuuli: Pohjoinen 4.6 m/s
Tuuli: Pohjoinen 4.6 m/s
Lämpötila: 0°C
Tuulen hyytävyys: -4°C
Kastepiste: 0°C
Kosteus: 100%
Ilmanpaine: 997 hPa
Pilvisyys: Pilvistä
Näkyvyys: 5 km
Pilvitiedot: Pilvistä 183 m
EFTP 230520Z AUTO 35009KT 320V040 5000 -SN OVC006 00/M00 Q0997
EFSI - Seinajoki-Ilmajoki, Finland
Etäisyys asemalta: Luode 114 km
Päivitetty: 23.10.2021 08:20
Pilvistä  
Pilvistä  
   Tuuli: Pohjoinen 4.1 m/s
Tuuli: Pohjoinen 4.1 m/s
Lämpötila: -1°C
Tuulen hyytävyys: -6°C
Kastepiste: -2°C
Kosteus: 93%
Ilmanpaine: 1001 hPa
Pilvisyys: Pilvistä
Näkyvyys: Enemmän kuin 10 km
Pilvitiedot: Pilvistä 335 m
EFSI 230520Z AUTO 35008KT 310V020 9999 OVC011 M01/M02 Q1001
EFMI - Mikkeli, Finland
Etäisyys asemalta: Itäkaakko 147 km
Päivitetty: 23.10.2021 08:20
Heikkoa lumisadetta, Sade, Pilvistä  
Heikkoa lumisadetta, Sade, Pilvistä  
   Tuuli: Pohjoinen 3.1 m/s
Tuuli: Pohjoinen 3.1 m/s
Lämpötila: 1°C
Tuulen hyytävyys: -2°C
Kastepiste: 0°C
Kosteus: 93%
Ilmanpaine: 994 hPa
Pilvisyys: Pilvistä
Näkyvyys: Enemmän kuin 10 km
Pilvitiedot: Pilvistä 244 m
EFMI 230520Z AUTO 01006KT 260V060 9999 -SNRA OVC008 01/00 Q0994
EFPO - Pori (Mil/Civ), Finland
Etäisyys asemalta: Länsilounas 154 km
Päivitetty: 23.10.2021 08:20
Heikkoja sadekuuroja, Sade, Melkein pilvistä  
Heikkoja sadekuuroja, Sade, Melkein pilvistä  
   Tuuli: Pohjoinen 5.7 m/s
Tuuli: Pohjoinen 5.7 m/s
Lämpötila: 1°C
Tuulen hyytävyys: -4°C
Kastepiste: -1°C
Kosteus: 87%
Ilmanpaine: 1001 hPa
Pilvisyys: Melkein pilvistä
Näkyvyys: Enemmän kuin 10 km
Pilvitiedot: Vähäistä pilvisyyttä 366 m,
Melkein pilvistä 1402 m
EFPO 230520Z AUTO 35011KT 320V030 9999 -SHRA FEW012 BKN046 01/M01 Q1001
EFUT - Utti (Fin-Afb), Finland
Etäisyys asemalta: Kaakko 180 km
Päivitetty: 23.10.2021 08:20
Heikkoa tihkusadetta, Pilvistä  
Heikkoa tihkusadetta, Pilvistä  
   Tuuli: Pohjoinen 4.6 m/s
Tuuli: Pohjoinen 4.6 m/s
Lämpötila: 2°C
Tuulen hyytävyys: -2°C
Kastepiste: 1°C
Kosteus: 93%
Ilmanpaine: 992 hPa
Pilvisyys: Pilvistä
Näkyvyys: Enemmän kuin 10 km
Pilvitiedot: Pilvistä 213 m
EFUT 230520Z AUTO 01009KT 9999 -DZ OVC007 02/01 Q0992
EFVA - Vaasa, Finland
Etäisyys asemalta: Luode 180 km
Päivitetty: 23.10.2021 08:20
Vähäistä pilvisyyttä  
Vähäistä pilvisyyttä  
   Tuuli: Pohjoinen 3.1 m/s
Tuuli: Pohjoinen 3.1 m/s
Lämpötila: 1°C
Tuulen hyytävyys: -2°C
Kastepiste: -2°C
Kosteus: 81%
Ilmanpaine: 1003 hPa
Pilvisyys: Vähäistä pilvisyyttä
Näkyvyys: Enemmän kuin 10 km
Pilvitiedot: Vähäistä pilvisyyttä 884 m
EFVA 230520Z AUTO 01006KT 9999 FEW029 01/M02 Q1003
EFHK - Helsinki/Vantaa, Finland
Etäisyys asemalta: Etelä 191 km
Päivitetty: 23.10.2021 08:20
Heikkoa sadetta, Melkein pilvistä  
Heikkoa sadetta, Melkein pilvistä  
   Tuuli: Luode 6.2 m/s
Tuuli: Luode 6.2 m/s
Lämpötila: 1°C
Tuulen hyytävyys: -4°C
Kastepiste: 1°C
Kosteus: 100%
Ilmanpaine: 994 hPa
Pilvisyys: Melkein pilvistä
Näkyvyys: Enemmän kuin 10 km
Pilvitiedot: Puolipilvistä 274 m,
Melkein pilvistä 335 m
EFHK 230520Z 32012KT 9999 -RA SCT009 BKN011 01/01 Q0994 TEMPO 7000 -SNRA BKN008

Alkuperäinen skripti  Saratoga-weather.org Sovitettu myös templatelle  Weerstation Leuven

Laitteet joita käytämme:

Sääasema
Davis VP2

Sääasemaohjelma
Cumulus

Sääaseman palvelin
HP ProBook 6460b

Palveluntarjoaja
Radicenter

Davis VP2

Cumulus

HP ProBook 6460b

Radicenter




Flag Counter Cumulus Top Weather Sites